sensor_id;sensor_type;location;lat;lon;timestamp;P1;durP1;ratioP1;P2;durP2;ratioP2
27566;SDS011;15006;48.584;9.186;2022-10-31T00:00:00;5.82;;;4.00;;
27566;SDS011;15006;48.584;9.186;2022-10-31T00:02:30;4.47;;;3.90;;
27566;SDS011;15006;48.584;9.186;2022-10-31T00:04:56;5.53;;;4.00;;
27566;SDS011;15006;48.584;9.186;2022-10-31T00:07:22;5.95;;;3.90;;
27566;SDS011;15006;48.584;9.186;2022-10-31T00:09:48;6.32;;;3.75;;
27566;SDS011;15006;48.584;9.186;2022-10-31T00:12:14;9.57;;;4.05;;
27566;SDS011;15006;48.584;9.186;2022-10-31T00:14:40;4.00;;;3.63;;
27566;SDS011;15006;48.584;9.186;2022-10-31T00:17:06;6.93;;;4.45;;
27566;SDS011;15006;48.584;9.186;2022-10-31T00:19:33;5.55;;;3.80;;
27566;SDS011;15006;48.584;9.186;2022-10-31T00:22:00;15.45;;;3.78;;
27566;SDS011;15006;48.584;9.186;2022-10-31T00:24:28;5.80;;;3.40;;
27566;SDS011;15006;48.584;9.186;2022-10-31T00:26:55;4.65;;;3.22;;
27566;SDS011;15006;48.584;9.186;2022-10-31T00:29:21;3.22;;;3.00;;
27566;SDS011;15006;48.584;9.186;2022-10-31T00:31:47;5.82;;;3.40;;
27566;SDS011;15006;48.584;9.186;2022-10-31T00:34:13;6.80;;;3.80;;
27566;SDS011;15006;48.584;9.186;2022-10-31T00:36:39;4.20;;;3.80;;
27566;SDS011;15006;48.584;9.186;2022-10-31T00:39:05;4.35;;;3.20;;
27566;SDS011;15006;48.584;9.186;2022-10-31T00:41:32;5.88;;;3.47;;
27566;SDS011;15006;48.584;9.186;2022-10-31T00:43:59;9.85;;;3.85;;
27566;SDS011;15006;48.584;9.186;2022-10-31T00:46:27;7.88;;;3.17;;
27566;SDS011;15006;48.584;9.186;2022-10-31T00:48:55;3.83;;;3.33;;
27566;SDS011;15006;48.584;9.186;2022-10-31T00:51:20;3.63;;;3.33;;
27566;SDS011;15006;48.584;9.186;2022-10-31T00:53:47;4.28;;;3.10;;
27566;SDS011;15006;48.584;9.186;2022-10-31T00:56:13;2.90;;;2.58;;
27566;SDS011;15006;48.584;9.186;2022-10-31T00:58:39;3.97;;;2.83;;
27566;SDS011;15006;48.584;9.186;2022-10-31T01:01:06;3.30;;;3.00;;
27566;SDS011;15006;48.584;9.186;2022-10-31T01:03:33;3.47;;;3.17;;
27566;SDS011;15006;48.584;9.186;2022-10-31T01:06:01;3.50;;;3.25;;
27566;SDS011;15006;48.584;9.186;2022-10-31T01:08:38;5.13;;;3.15;;
27566;SDS011;15006;48.584;9.186;2022-10-31T01:11:08;4.15;;;3.75;;
27566;SDS011;15006;48.584;9.186;2022-10-31T01:13:37;3.97;;;3.37;;
27566;SDS011;15006;48.584;9.186;2022-10-31T01:16:06;6.55;;;3.47;;
27566;SDS011;15006;48.584;9.186;2022-10-31T01:18:36;3.85;;;3.00;;
27566;SDS011;15006;48.584;9.186;2022-10-31T01:21:05;3.95;;;2.97;;
27566;SDS011;15006;48.584;9.186;2022-10-31T01:23:40;4.13;;;3.20;;
27566;SDS011;15006;48.584;9.186;2022-10-31T01:28:37;2.90;;;2.70;;
27566;SDS011;15006;48.584;9.186;2022-10-31T01:31:11;4.50;;;3.13;;
27566;SDS011;15006;48.584;9.186;2022-10-31T01:33:37;9.10;;;3.45;;
27566;SDS011;15006;48.584;9.186;2022-10-31T01:36:21;3.05;;;2.75;;
27566;SDS011;15006;48.584;9.186;2022-10-31T01:39:01;8.90;;;3.03;;
27566;SDS011;15006;48.584;9.186;2022-10-31T01:41:33;5.82;;;3.10;;
27566;SDS011;15006;48.584;9.186;2022-10-31T01:46:56;5.60;;;2.60;;
27566;SDS011;15006;48.584;9.186;2022-10-31T01:52:14;3.37;;;3.07;;
27566;SDS011;15006;48.584;9.186;2022-10-31T01:57:40;2.80;;;2.60;;
27566;SDS011;15006;48.584;9.186;2022-10-31T02:00:10;3.72;;;3.42;;
27566;SDS011;15006;48.584;9.186;2022-10-31T02:02:38;3.08;;;2.63;;
27566;SDS011;15006;48.584;9.186;2022-10-31T02:05:15;3.42;;;3.13;;
27566;SDS011;15006;48.584;9.186;2022-10-31T02:07:54;4.20;;;3.05;;
27566;SDS011;15006;48.584;9.186;2022-10-31T02:10:54;5.90;;;2.63;;
27566;SDS011;15006;48.584;9.186;2022-10-31T02:13:22;4.05;;;2.88;;
27566;SDS011;15006;48.584;9.186;2022-10-31T02:15:50;3.72;;;3.00;;
27566;SDS011;15006;48.584;9.186;2022-10-31T02:18:23;5.95;;;2.88;;
27566;SDS011;15006;48.584;9.186;2022-10-31T02:41:32;4.05;;;2.75;;
27566;SDS011;15006;48.584;9.186;2022-10-31T02:44:16;2.83;;;2.63;;
27566;SDS011;15006;48.584;9.186;2022-10-31T02:47:16;6.50;;;2.97;;
27566;SDS011;15006;48.584;9.186;2022-10-31T02:49:55;4.82;;;2.47;;
27566;SDS011;15006;48.584;9.186;2022-10-31T02:52:27;4.72;;;2.92;;
27566;SDS011;15006;48.584;9.186;2022-10-31T02:54:56;2.92;;;2.60;;
27566;SDS011;15006;48.584;9.186;2022-10-31T02:57:26;4.32;;;2.83;;
27566;SDS011;15006;48.584;9.186;2022-10-31T03:00:15;3.60;;;2.70;;
27566;SDS011;15006;48.584;9.186;2022-10-31T03:10:58;3.10;;;2.78;;
27566;SDS011;15006;48.584;9.186;2022-10-31T03:16:20;3.70;;;2.88;;
27566;SDS011;15006;48.584;9.186;2022-10-31T03:19:10;2.85;;;2.65;;
27566;SDS011;15006;48.584;9.186;2022-10-31T03:21:45;6.07;;;3.15;;
27566;SDS011;15006;48.584;9.186;2022-10-31T03:24:15;3.45;;;3.15;;
27566;SDS011;15006;48.584;9.186;2022-10-31T03:26:43;3.92;;;2.70;;
27566;SDS011;15006;48.584;9.186;2022-10-31T03:29:19;3.38;;;2.85;;
27566;SDS011;15006;48.584;9.186;2022-10-31T03:32:10;4.88;;;2.75;;
27566;SDS011;15006;48.584;9.186;2022-10-31T03:34:42;5.00;;;3.72;;
27566;SDS011;15006;48.584;9.186;2022-10-31T03:37:11;7.38;;;2.78;;
27566;SDS011;15006;48.584;9.186;2022-10-31T03:39:43;4.30;;;2.67;;
27566;SDS011;15006;48.584;9.186;2022-10-31T03:42:16;4.93;;;2.75;;
27566;SDS011;15006;48.584;9.186;2022-10-31T03:45:30;2.92;;;2.38;;
27566;SDS011;15006;48.584;9.186;2022-10-31T03:47:40;7.18;;;3.50;;
27566;SDS011;15006;48.584;9.186;2022-10-31T03:50:09;3.20;;;2.90;;
27566;SDS011;15006;48.584;9.186;2022-10-31T03:52:43;2.83;;;2.65;;
27566;SDS011;15006;48.584;9.186;2022-10-31T03:55:27;4.75;;;2.90;;
27566;SDS011;15006;48.584;9.186;2022-10-31T04:01:24;3.40;;;3.10;;
27566;SDS011;15006;48.584;9.186;2022-10-31T04:03:52;4.05;;;3.35;;
27566;SDS011;15006;48.584;9.186;2022-10-31T04:06:19;3.25;;;3.03;;
27566;SDS011;15006;48.584;9.186;2022-10-31T04:08:49;3.28;;;3.00;;
27566;SDS011;15006;48.584;9.186;2022-10-31T04:11:26;3.22;;;3.03;;
27566;SDS011;15006;48.584;9.186;2022-10-31T04:13:56;3.00;;;2.80;;
27566;SDS011;15006;48.584;9.186;2022-10-31T04:16:24;3.10;;;2.90;;
27566;SDS011;15006;48.584;9.186;2022-10-31T04:18:51;3.33;;;3.10;;
27566;SDS011;15006;48.584;9.186;2022-10-31T04:21:17;2.97;;;2.78;;
27566;SDS011;15006;48.584;9.186;2022-10-31T04:23:43;3.28;;;3.08;;
27566;SDS011;15006;48.584;9.186;2022-10-31T04:26:12;3.03;;;2.83;;
27566;SDS011;15006;48.584;9.186;2022-10-31T04:28:38;3.60;;;3.20;;
27566;SDS011;15006;48.584;9.186;2022-10-31T04:31:04;3.08;;;2.85;;
27566;SDS011;15006;48.584;9.186;2022-10-31T04:33:30;4.20;;;2.97;;
27566;SDS011;15006;48.584;9.186;2022-10-31T04:35:56;2.80;;;2.60;;
27566;SDS011;15006;48.584;9.186;2022-10-31T04:38:22;3.15;;;2.80;;
27566;SDS011;15006;48.584;9.186;2022-10-31T04:40:48;2.83;;;2.63;;
27566;SDS011;15006;48.584;9.186;2022-10-31T04:43:14;3.58;;;3.15;;
27566;SDS011;15006;48.584;9.186;2022-10-31T04:45:41;2.67;;;2.53;;
27566;SDS011;15006;48.584;9.186;2022-10-31T04:48:06;2.63;;;2.45;;
27566;SDS011;15006;48.584;9.186;2022-10-31T04:50:33;2.50;;;2.30;;
27566;SDS011;15006;48.584;9.186;2022-10-31T04:52:59;2.50;;;2.40;;
27566;SDS011;15006;48.584;9.186;2022-10-31T04:55:25;2.67;;;2.50;;
27566;SDS011;15006;48.584;9.186;2022-10-31T04:57:51;3.05;;;2.47;;
27566;SDS011;15006;48.584;9.186;2022-10-31T05:00:18;2.80;;;2.58;;
27566;SDS011;15006;48.584;9.186;2022-10-31T05:02:47;3.13;;;2.92;;
27566;SDS011;15006;48.584;9.186;2022-10-31T05:05:19;4.47;;;4.07;;
27566;SDS011;15006;48.584;9.186;2022-10-31T05:07:49;5.07;;;3.47;;
27566;SDS011;15006;48.584;9.186;2022-10-31T05:10:17;4.00;;;3.22;;
27566;SDS011;15006;48.584;9.186;2022-10-31T05:12:47;4.65;;;3.13;;
27566;SDS011;15006;48.584;9.186;2022-10-31T05:17:45;3.38;;;2.88;;
27566;SDS011;15006;48.584;9.186;2022-10-31T05:20:12;3.15;;;2.95;;
27566;SDS011;15006;48.584;9.186;2022-10-31T05:22:43;3.45;;;3.15;;
27566;SDS011;15006;48.584;9.186;2022-10-31T05:25:11;6.35;;;2.83;;
27566;SDS011;15006;48.584;9.186;2022-10-31T05:27:41;3.28;;;3.08;;
27566;SDS011;15006;48.584;9.186;2022-10-31T05:30:10;3.15;;;2.95;;
27566;SDS011;15006;48.584;9.186;2022-10-31T05:32:39;3.22;;;3.03;;
27566;SDS011;15006;48.584;9.186;2022-10-31T05:35:08;3.38;;;3.03;;
27566;SDS011;15006;48.584;9.186;2022-10-31T05:37:37;4.03;;;3.33;;
27566;SDS011;15006;48.584;9.186;2022-10-31T05:40:04;3.28;;;3.08;;
27566;SDS011;15006;48.584;9.186;2022-10-31T05:42:32;3.13;;;2.90;;
27566;SDS011;15006;48.584;9.186;2022-10-31T05:44:58;3.40;;;3.10;;
27566;SDS011;15006;48.584;9.186;2022-10-31T05:47:24;3.55;;;3.28;;
27566;SDS011;15006;48.584;9.186;2022-10-31T05:49:51;3.30;;;3.10;;
27566;SDS011;15006;48.584;9.186;2022-10-31T05:52:17;2.97;;;2.72;;
27566;SDS011;15006;48.584;9.186;2022-10-31T05:54:44;5.07;;;3.05;;
27566;SDS011;15006;48.584;9.186;2022-10-31T05:57:10;6.95;;;2.97;;
27566;SDS011;15006;48.584;9.186;2022-10-31T05:59:36;3.30;;;3.00;;
27566;SDS011;15006;48.584;9.186;2022-10-31T06:02:02;3.40;;;2.95;;
27566;SDS011;15006;48.584;9.186;2022-10-31T06:04:28;3.95;;;3.65;;
27566;SDS011;15006;48.584;9.186;2022-10-31T06:06:55;3.90;;;3.15;;
27566;SDS011;15006;48.584;9.186;2022-10-31T06:09:22;3.40;;;3.08;;
27566;SDS011;15006;48.584;9.186;2022-10-31T06:11:49;3.42;;;3.13;;
27566;SDS011;15006;48.584;9.186;2022-10-31T06:14:14;3.17;;;2.88;;
27566;SDS011;15006;48.584;9.186;2022-10-31T06:16:40;4.25;;;3.42;;
27566;SDS011;15006;48.584;9.186;2022-10-31T06:19:06;3.28;;;3.08;;
27566;SDS011;15006;48.584;9.186;2022-10-31T06:21:32;3.50;;;3.10;;
27566;SDS011;15006;48.584;9.186;2022-10-31T06:23:58;8.13;;;3.75;;
27566;SDS011;15006;48.584;9.186;2022-10-31T06:26:24;4.07;;;3.60;;
27566;SDS011;15006;48.584;9.186;2022-10-31T06:28:50;9.27;;;3.88;;
27566;SDS011;15006;48.584;9.186;2022-10-31T06:31:16;3.78;;;3.42;;
27566;SDS011;15006;48.584;9.186;2022-10-31T06:33:42;3.00;;;2.80;;
27566;SDS011;15006;48.584;9.186;2022-10-31T06:36:08;4.05;;;3.70;;
27566;SDS011;15006;48.584;9.186;2022-10-31T06:38:35;3.80;;;3.50;;
27566;SDS011;15006;48.584;9.186;2022-10-31T06:41:01;5.18;;;4.07;;
27566;SDS011;15006;48.584;9.186;2022-10-31T06:43:31;6.75;;;4.70;;
27566;SDS011;15006;48.584;9.186;2022-10-31T06:45:57;7.60;;;4.43;;
27566;SDS011;15006;48.584;9.186;2022-10-31T06:50:57;8.98;;;4.45;;
27566;SDS011;15006;48.584;9.186;2022-10-31T06:53:27;7.53;;;5.72;;
27566;SDS011;15006;48.584;9.186;2022-10-31T06:55:55;6.55;;;5.82;;
27566;SDS011;15006;48.584;9.186;2022-10-31T06:58:21;6.95;;;5.85;;
27566;SDS011;15006;48.584;9.186;2022-10-31T07:00:48;6.70;;;5.22;;
27566;SDS011;15006;48.584;9.186;2022-10-31T07:03:14;8.48;;;5.57;;
27566;SDS011;15006;48.584;9.186;2022-10-31T07:05:41;4.63;;;4.32;;
27566;SDS011;15006;48.584;9.186;2022-10-31T07:08:09;6.50;;;4.80;;
27566;SDS011;15006;48.584;9.186;2022-10-31T07:10:37;4.55;;;4.22;;
27566;SDS011;15006;48.584;9.186;2022-10-31T07:13:06;9.05;;;4.43;;
27566;SDS011;15006;48.584;9.186;2022-10-31T07:15:36;9.38;;;4.90;;
27566;SDS011;15006;48.584;9.186;2022-10-31T07:18:05;8.23;;;5.47;;
27566;SDS011;15006;48.584;9.186;2022-10-31T07:20:33;6.43;;;4.80;;
27566;SDS011;15006;48.584;9.186;2022-10-31T07:23:00;7.10;;;4.88;;
27566;SDS011;15006;48.584;9.186;2022-10-31T07:25:26;8.50;;;4.75;;
27566;SDS011;15006;48.584;9.186;2022-10-31T07:27:53;5.20;;;4.30;;
27566;SDS011;15006;48.584;9.186;2022-10-31T07:30:19;7.57;;;4.85;;
27566;SDS011;15006;48.584;9.186;2022-10-31T07:32:46;4.95;;;4.43;;
27566;SDS011;15006;48.584;9.186;2022-10-31T07:35:15;7.53;;;4.82;;
27566;SDS011;15006;48.584;9.186;2022-10-31T07:37:43;4.35;;;4.05;;
27566;SDS011;15006;48.584;9.186;2022-10-31T07:40:09;7.95;;;4.38;;
27566;SDS011;15006;48.584;9.186;2022-10-31T07:42:37;8.18;;;5.20;;
27566;SDS011;15006;48.584;9.186;2022-10-31T07:45:09;4.97;;;4.50;;
27566;SDS011;15006;48.584;9.186;2022-10-31T07:47:38;5.32;;;4.80;;
27566;SDS011;15006;48.584;9.186;2022-10-31T07:50:18;7.00;;;4.88;;
27566;SDS011;15006;48.584;9.186;2022-10-31T07:52:46;9.02;;;4.95;;
27566;SDS011;15006;48.584;9.186;2022-10-31T07:55:13;8.40;;;5.38;;
27566;SDS011;15006;48.584;9.186;2022-10-31T07:57:40;9.02;;;4.97;;
27566;SDS011;15006;48.584;9.186;2022-10-31T08:00:07;7.72;;;4.32;;
27566;SDS011;15006;48.584;9.186;2022-10-31T08:02:35;6.88;;;3.88;;
27566;SDS011;15006;48.584;9.186;2022-10-31T08:05:01;6.00;;;4.35;;
27566;SDS011;15006;48.584;9.186;2022-10-31T08:07:28;11.57;;;5.40;;
27566;SDS011;15006;48.584;9.186;2022-10-31T08:09:55;7.53;;;4.60;;
27566;SDS011;15006;48.584;9.186;2022-10-31T08:12:21;4.95;;;4.50;;
27566;SDS011;15006;48.584;9.186;2022-10-31T08:14:47;4.90;;;4.32;;
27566;SDS011;15006;48.584;9.186;2022-10-31T08:17:13;7.75;;;4.32;;
27566;SDS011;15006;48.584;9.186;2022-10-31T08:19:40;7.72;;;4.22;;
27566;SDS011;15006;48.584;9.186;2022-10-31T08:22:05;5.97;;;4.97;;
27566;SDS011;15006;48.584;9.186;2022-10-31T08:24:31;4.88;;;4.45;;
27566;SDS011;15006;48.584;9.186;2022-10-31T08:26:57;8.00;;;4.13;;
27566;SDS011;15006;48.584;9.186;2022-10-31T08:29:23;10.65;;;4.93;;
27566;SDS011;15006;48.584;9.186;2022-10-31T08:31:49;5.38;;;3.75;;
27566;SDS011;15006;48.584;9.186;2022-10-31T08:34:15;5.93;;;3.83;;
27566;SDS011;15006;48.584;9.186;2022-10-31T08:36:41;7.57;;;4.20;;
27566;SDS011;15006;48.584;9.186;2022-10-31T08:39:10;5.13;;;4.50;;
27566;SDS011;15006;48.584;9.186;2022-10-31T08:41:36;5.93;;;4.15;;
27566;SDS011;15006;48.584;9.186;2022-10-31T08:44:02;4.50;;;4.10;;
27566;SDS011;15006;48.584;9.186;2022-10-31T08:46:28;7.20;;;4.15;;
27566;SDS011;15006;48.584;9.186;2022-10-31T08:48:54;4.13;;;3.72;;
27566;SDS011;15006;48.584;9.186;2022-10-31T08:51:20;4.65;;;4.15;;
27566;SDS011;15006;48.584;9.186;2022-10-31T08:53:46;8.25;;;4.15;;
27566;SDS011;15006;48.584;9.186;2022-10-31T08:56:12;4.47;;;3.97;;
27566;SDS011;15006;48.584;9.186;2022-10-31T08:58:38;6.90;;;3.97;;
27566;SDS011;15006;48.584;9.186;2022-10-31T09:01:04;7.70;;;4.72;;
27566;SDS011;15006;48.584;9.186;2022-10-31T09:03:30;6.45;;;4.78;;
27566;SDS011;15006;48.584;9.186;2022-10-31T09:05:58;8.02;;;4.15;;
27566;SDS011;15006;48.584;9.186;2022-10-31T09:08:28;8.80;;;4.10;;
27566;SDS011;15006;48.584;9.186;2022-10-31T09:10:56;5.57;;;4.70;;
27566;SDS011;15006;48.584;9.186;2022-10-31T09:13:23;4.28;;;3.97;;
27566;SDS011;15006;48.584;9.186;2022-10-31T09:15:49;10.73;;;4.63;;
27566;SDS011;15006;48.584;9.186;2022-10-31T09:18:17;8.60;;;4.35;;
27566;SDS011;15006;48.584;9.186;2022-10-31T09:20:45;5.70;;;3.97;;
27566;SDS011;15006;48.584;9.186;2022-10-31T09:23:14;5.68;;;3.50;;
27566;SDS011;15006;48.584;9.186;2022-10-31T09:25:42;5.50;;;4.00;;
27566;SDS011;15006;48.584;9.186;2022-10-31T09:28:10;6.93;;;3.60;;
27566;SDS011;15006;48.584;9.186;2022-10-31T09:30:38;5.38;;;4.13;;
27566;SDS011;15006;48.584;9.186;2022-10-31T09:33:05;6.35;;;4.25;;
27566;SDS011;15006;48.584;9.186;2022-10-31T09:35:38;5.72;;;4.78;;
27566;SDS011;15006;48.584;9.186;2022-10-31T09:38:06;8.63;;;4.60;;
27566;SDS011;15006;48.584;9.186;2022-10-31T09:40:37;5.10;;;4.60;;
27566;SDS011;15006;48.584;9.186;2022-10-31T09:51:43;7.28;;;4.00;;
27566;SDS011;15006;48.584;9.186;2022-10-31T09:56:51;6.85;;;3.78;;
27566;SDS011;15006;48.584;9.186;2022-10-31T09:59:50;4.43;;;3.78;;
27566;SDS011;15006;48.584;9.186;2022-10-31T10:04:48;7.57;;;4.28;;
27566;SDS011;15006;48.584;9.186;2022-10-31T10:22:37;9.38;;;3.38;;
27566;SDS011;15006;48.584;9.186;2022-10-31T10:25:20;5.55;;;3.28;;
27566;SDS011;15006;48.584;9.186;2022-10-31T10:28:12;7.22;;;3.55;;
27566;SDS011;15006;48.584;9.186;2022-10-31T10:31:05;4.45;;;3.03;;
27566;SDS011;15006;48.584;9.186;2022-10-31T10:37:08;3.80;;;3.28;;
27566;SDS011;15006;48.584;9.186;2022-10-31T10:39:48;4.75;;;3.20;;
27566;SDS011;15006;48.584;9.186;2022-10-31T10:42:20;5.57;;;3.05;;
27566;SDS011;15006;48.584;9.186;2022-10-31T10:45:14;5.10;;;2.83;;
27566;SDS011;15006;48.584;9.186;2022-10-31T10:48:19;4.70;;;3.05;;
27566;SDS011;15006;48.584;9.186;2022-10-31T10:50:57;4.60;;;3.03;;
27566;SDS011;15006;48.584;9.186;2022-10-31T10:53:26;6.28;;;2.85;;
27566;SDS011;15006;48.584;9.186;2022-10-31T10:56:38;3.72;;;2.95;;
27566;SDS011;15006;48.584;9.186;2022-10-31T10:59:16;5.82;;;3.45;;
27566;SDS011;15006;48.584;9.186;2022-10-31T11:01:45;5.60;;;3.42;;
27566;SDS011;15006;48.584;9.186;2022-10-31T11:04:49;4.60;;;3.17;;
27566;SDS011;15006;48.584;9.186;2022-10-31T11:07:09;5.63;;;3.78;;
27566;SDS011;15006;48.584;9.186;2022-10-31T11:09:37;6.45;;;3.28;;
27566;SDS011;15006;48.584;9.186;2022-10-31T11:12:36;3.50;;;3.03;;
27566;SDS011;15006;48.584;9.186;2022-10-31T11:15:05;2.92;;;2.67;;
27566;SDS011;15006;48.584;9.186;2022-10-31T11:17:47;3.53;;;2.75;;
27566;SDS011;15006;48.584;9.186;2022-10-31T11:22:43;7.28;;;2.80;;
27566;SDS011;15006;48.584;9.186;2022-10-31T11:25:24;4.72;;;2.80;;
27566;SDS011;15006;48.584;9.186;2022-10-31T11:28:02;5.35;;;2.85;;
27566;SDS011;15006;48.584;9.186;2022-10-31T11:30:35;6.55;;;2.47;;
27566;SDS011;15006;48.584;9.186;2022-10-31T11:33:15;3.88;;;2.53;;
27566;SDS011;15006;48.584;9.186;2022-10-31T11:35:46;7.00;;;2.35;;
27566;SDS011;15006;48.584;9.186;2022-10-31T11:38:18;3.55;;;2.67;;
27566;SDS011;15006;48.584;9.186;2022-10-31T11:40:54;4.45;;;2.50;;
27566;SDS011;15006;48.584;9.186;2022-10-31T11:43:35;5.18;;;2.50;;
27566;SDS011;15006;48.584;9.186;2022-10-31T11:46:08;3.90;;;2.75;;
27566;SDS011;15006;48.584;9.186;2022-10-31T11:48:36;7.10;;;2.63;;
27566;SDS011;15006;48.584;9.186;2022-10-31T11:51:03;5.95;;;2.60;;
27566;SDS011;15006;48.584;9.186;2022-10-31T11:53:32;6.97;;;3.03;;
27566;SDS011;15006;48.584;9.186;2022-10-31T11:56:10;2.83;;;2.55;;
27566;SDS011;15006;48.584;9.186;2022-10-31T12:01:08;3.97;;;2.35;;
27566;SDS011;15006;48.584;9.186;2022-10-31T12:03:57;2.92;;;2.63;;
27566;SDS011;15006;48.584;9.186;2022-10-31T12:06:38;6.78;;;2.47;;
27566;SDS011;15006;48.584;9.186;2022-10-31T12:09:17;4.20;;;2.38;;
27566;SDS011;15006;48.584;9.186;2022-10-31T12:12:00;11.00;;;2.70;;
27566;SDS011;15006;48.584;9.186;2022-10-31T12:23:37;4.25;;;2.95;;
27566;SDS011;15006;48.584;9.186;2022-10-31T12:29:29;3.60;;;2.28;;
27566;SDS011;15006;48.584;9.186;2022-10-31T12:46:02;4.47;;;2.78;;
27566;SDS011;15006;48.584;9.186;2022-10-31T12:54:18;5.95;;;4.03;;
27566;SDS011;15006;48.584;9.186;2022-10-31T12:59:54;3.70;;;2.70;;
27566;SDS011;15006;48.584;9.186;2022-10-31T13:02:34;6.20;;;2.95;;
27566;SDS011;15006;48.584;9.186;2022-10-31T13:05:13;6.07;;;2.90;;
27566;SDS011;15006;48.584;9.186;2022-10-31T13:08:05;7.00;;;2.65;;
27566;SDS011;15006;48.584;9.186;2022-10-31T13:10:42;5.45;;;3.28;;
27566;SDS011;15006;48.584;9.186;2022-10-31T13:15:58;5.38;;;3.28;;
27566;SDS011;15006;48.584;9.186;2022-10-31T13:18:31;5.57;;;3.67;;
27566;SDS011;15006;48.584;9.186;2022-10-31T13:21:22;4.68;;;3.22;;
27566;SDS011;15006;48.584;9.186;2022-10-31T13:23:57;7.15;;;3.40;;
27566;SDS011;15006;48.584;9.186;2022-10-31T13:26:33;5.47;;;3.53;;
27566;SDS011;15006;48.584;9.186;2022-10-31T13:29:17;5.55;;;3.58;;
27566;SDS011;15006;48.584;9.186;2022-10-31T13:31:49;8.05;;;3.25;;
27566;SDS011;15006;48.584;9.186;2022-10-31T13:34:20;5.82;;;3.20;;
27566;SDS011;15006;48.584;9.186;2022-10-31T13:36:58;3.72;;;3.42;;
27566;SDS011;15006;48.584;9.186;2022-10-31T13:45:49;8.20;;;3.33;;
27566;SDS011;15006;48.584;9.186;2022-10-31T13:48:19;3.90;;;3.20;;
27566;SDS011;15006;48.584;9.186;2022-10-31T13:51:05;6.35;;;3.30;;
27566;SDS011;15006;48.584;9.186;2022-10-31T13:53:44;5.07;;;3.40;;
27566;SDS011;15006;48.584;9.186;2022-10-31T13:56:21;7.40;;;2.90;;
27566;SDS011;15006;48.584;9.186;2022-10-31T13:59:00;7.10;;;2.80;;
27566;SDS011;15006;48.584;9.186;2022-10-31T14:01:35;3.20;;;2.90;;
27566;SDS011;15006;48.584;9.186;2022-10-31T14:04:16;3.90;;;2.85;;
27566;SDS011;15006;48.584;9.186;2022-10-31T14:15:12;3.80;;;2.60;;
27566;SDS011;15006;48.584;9.186;2022-10-31T14:17:56;4.55;;;2.25;;
27566;SDS011;15006;48.584;9.186;2022-10-31T14:23:12;2.70;;;2.25;;
27566;SDS011;15006;48.584;9.186;2022-10-31T14:28:57;4.15;;;2.55;;
27566;SDS011;15006;48.584;9.186;2022-10-31T14:34:41;5.47;;;2.20;;
27566;SDS011;15006;48.584;9.186;2022-10-31T14:43:47;2.85;;;2.25;;
27566;SDS011;15006;48.584;9.186;2022-10-31T14:49:34;3.15;;;2.10;;
27566;SDS011;15006;48.584;9.186;2022-10-31T14:52:23;2.30;;;2.05;;
27566;SDS011;15006;48.584;9.186;2022-10-31T14:54:54;6.70;;;2.28;;
27566;SDS011;15006;48.584;9.186;2022-10-31T14:57:31;4.22;;;2.15;;
27566;SDS011;15006;48.584;9.186;2022-10-31T15:00:02;5.75;;;2.05;;
27566;SDS011;15006;48.584;9.186;2022-10-31T15:02:45;15.52;;;2.20;;
27566;SDS011;15006;48.584;9.186;2022-10-31T15:05:29;6.97;;;2.30;;
27566;SDS011;15006;48.584;9.186;2022-10-31T15:07:58;2.65;;;2.22;;
27566;SDS011;15006;48.584;9.186;2022-10-31T15:10:25;2.15;;;1.95;;
27566;SDS011;15006;48.584;9.186;2022-10-31T15:13:10;3.33;;;2.05;;
27566;SDS011;15006;48.584;9.186;2022-10-31T15:15:45;3.22;;;2.30;;
27566;SDS011;15006;48.584;9.186;2022-10-31T15:18:19;2.47;;;2.15;;
27566;SDS011;15006;48.584;9.186;2022-10-31T15:20:51;4.88;;;2.28;;
27566;SDS011;15006;48.584;9.186;2022-10-31T15:23:29;3.38;;;2.33;;
27566;SDS011;15006;48.584;9.186;2022-10-31T15:26:00;4.95;;;2.58;;
27566;SDS011;15006;48.584;9.186;2022-10-31T15:28:29;2.63;;;2.38;;
27566;SDS011;15006;48.584;9.186;2022-10-31T15:31:00;3.20;;;2.90;;
27566;SDS011;15006;48.584;9.186;2022-10-31T15:33:28;3.60;;;2.65;;
27566;SDS011;15006;48.584;9.186;2022-10-31T15:36:06;3.88;;;2.70;;
27566;SDS011;15006;48.584;9.186;2022-10-31T15:38:48;3.05;;;2.83;;
27566;SDS011;15006;48.584;9.186;2022-10-31T15:41:28;4.63;;;2.80;;
27566;SDS011;15006;48.584;9.186;2022-10-31T15:44:06;6.18;;;3.03;;
27566;SDS011;15006;48.584;9.186;2022-10-31T15:46:59;4.70;;;2.88;;
27566;SDS011;15006;48.584;9.186;2022-10-31T15:52:05;11.25;;;3.97;;
27566;SDS011;15006;48.584;9.186;2022-10-31T15:54:45;4.03;;;2.80;;
27566;SDS011;15006;48.584;9.186;2022-10-31T15:57:15;3.92;;;3.47;;
27566;SDS011;15006;48.584;9.186;2022-10-31T15:59:44;3.50;;;3.25;;
27566;SDS011;15006;48.584;9.186;2022-10-31T16:04:50;9.73;;;4.20;;
27566;SDS011;15006;48.584;9.186;2022-10-31T16:07:28;5.20;;;3.50;;
27566;SDS011;15006;48.584;9.186;2022-10-31T16:09:56;4.55;;;3.90;;
27566;SDS011;15006;48.584;9.186;2022-10-31T16:12:26;8.57;;;4.50;;
27566;SDS011;15006;48.584;9.186;2022-10-31T16:15:16;8.10;;;4.10;;
27566;SDS011;15006;48.584;9.186;2022-10-31T16:17:45;4.88;;;3.90;;
27566;SDS011;15006;48.584;9.186;2022-10-31T16:20:16;7.90;;;3.70;;
27566;SDS011;15006;48.584;9.186;2022-10-31T16:22:48;8.77;;;4.47;;
27566;SDS011;15006;48.584;9.186;2022-10-31T16:25:17;7.63;;;4.38;;
27566;SDS011;15006;48.584;9.186;2022-10-31T16:27:55;8.48;;;4.63;;
27566;SDS011;15006;48.584;9.186;2022-10-31T16:30:36;11.85;;;6.15;;
27566;SDS011;15006;48.584;9.186;2022-10-31T16:33:28;7.13;;;6.35;;
27566;SDS011;15006;48.584;9.186;2022-10-31T16:36:28;6.82;;;5.80;;
27566;SDS011;15006;48.584;9.186;2022-10-31T16:38:57;6.03;;;5.47;;
27566;SDS011;15006;48.584;9.186;2022-10-31T16:41:23;7.30;;;5.97;;
27566;SDS011;15006;48.584;9.186;2022-10-31T16:43:51;14.85;;;9.35;;
27566;SDS011;15006;48.584;9.186;2022-10-31T16:46:27;11.27;;;8.75;;
27566;SDS011;15006;48.584;9.186;2022-10-31T16:48:53;19.83;;;9.50;;
27566;SDS011;15006;48.584;9.186;2022-10-31T16:51:19;24.67;;;11.00;;
27566;SDS011;15006;48.584;9.186;2022-10-31T16:53:46;23.38;;;11.02;;
27566;SDS011;15006;48.584;9.186;2022-10-31T16:56:16;14.70;;;10.00;;
27566;SDS011;15006;48.584;9.186;2022-10-31T16:58:48;11.57;;;9.57;;
27566;SDS011;15006;48.584;9.186;2022-10-31T17:01:14;15.57;;;10.30;;
27566;SDS011;15006;48.584;9.186;2022-10-31T17:03:41;15.05;;;9.65;;
27566;SDS011;15006;48.584;9.186;2022-10-31T17:06:10;13.75;;;9.93;;
27566;SDS011;15006;48.584;9.186;2022-10-31T17:08:39;13.55;;;9.43;;
27566;SDS011;15006;48.584;9.186;2022-10-31T17:11:05;10.80;;;8.43;;
27566;SDS011;15006;48.584;9.186;2022-10-31T17:13:40;12.57;;;8.40;;
27566;SDS011;15006;48.584;9.186;2022-10-31T17:16:06;8.85;;;7.65;;
27566;SDS011;15006;48.584;9.186;2022-10-31T17:18:32;16.70;;;8.90;;
27566;SDS011;15006;48.584;9.186;2022-10-31T17:20:59;13.18;;;7.97;;
27566;SDS011;15006;48.584;9.186;2022-10-31T17:23:27;11.77;;;8.30;;
27566;SDS011;15006;48.584;9.186;2022-10-31T17:25:54;14.60;;;8.38;;
27566;SDS011;15006;48.584;9.186;2022-10-31T17:28:21;8.63;;;7.75;;
27566;SDS011;15006;48.584;9.186;2022-10-31T17:30:47;17.85;;;7.60;;
27566;SDS011;15006;48.584;9.186;2022-10-31T17:33:14;10.10;;;7.72;;
27566;SDS011;15006;48.584;9.186;2022-10-31T17:35:41;14.98;;;9.25;;
27566;SDS011;15006;48.584;9.186;2022-10-31T17:38:11;19.77;;;9.52;;
27566;SDS011;15006;48.584;9.186;2022-10-31T17:40:38;12.50;;;10.18;;
27566;SDS011;15006;48.584;9.186;2022-10-31T17:43:06;17.92;;;11.35;;
27566;SDS011;15006;48.584;9.186;2022-10-31T17:45:36;17.08;;;11.07;;
27566;SDS011;15006;48.584;9.186;2022-10-31T17:48:05;28.02;;;13.20;;
27566;SDS011;15006;48.584;9.186;2022-10-31T17:50:32;44.13;;;17.55;;
27566;SDS011;15006;48.584;9.186;2022-10-31T17:52:58;46.92;;;19.90;;
27566;SDS011;15006;48.584;9.186;2022-10-31T17:55:25;46.53;;;20.83;;